createdAt,value
2022-11-16T00:01:38.975Z,9.35
2022-11-16T00:04:41.626Z,9.33
2022-11-16T00:07:44.094Z,9.42
2022-11-16T00:10:46.647Z,9.47
2022-11-16T00:13:57.492Z,9.42
2022-11-16T00:17:00.388Z,9.41
2022-11-16T00:20:02.954Z,9.54
2022-11-16T00:23:05.448Z,9.50
2022-11-16T00:26:09.935Z,9.46
2022-11-16T00:29:16.004Z,9.55
2022-11-16T00:32:18.423Z,9.59
2022-11-16T00:35:21.005Z,9.62
2022-11-16T00:38:23.923Z,9.57
2022-11-16T00:41:26.341Z,9.54
2022-11-16T00:44:30.295Z,9.58
2022-11-16T00:47:32.784Z,9.53
2022-11-16T00:50:35.623Z,9.50
2022-11-16T00:53:38.967Z,9.53
2022-11-16T00:56:42.671Z,9.58
2022-11-16T00:59:47.075Z,9.50
2022-11-16T01:02:49.593Z,9.55
2022-11-16T01:05:52.137Z,9.64
2022-11-16T01:08:54.537Z,9.62
2022-11-16T01:12:12.745Z,9.40
2022-11-16T01:15:18.727Z,9.49
2022-11-16T01:18:21.137Z,9.56
2022-11-16T01:21:24.163Z,9.68
2022-11-16T01:24:27.430Z,9.75
2022-11-16T01:27:29.933Z,9.62
2022-11-16T01:30:36.279Z,9.71
2022-11-16T01:33:42.761Z,9.65
2022-11-16T01:36:53.803Z,9.58
2022-11-16T01:39:56.713Z,9.48
2022-11-16T01:42:59.534Z,9.53
2022-11-16T01:46:03.370Z,9.48
2022-11-16T01:49:10.813Z,9.57
2022-11-16T01:52:16.738Z,9.56
2022-11-16T01:55:19.817Z,9.41
2022-11-16T01:58:37.574Z,9.53
2022-11-16T02:01:51.764Z,9.59
2022-11-16T02:04:57.058Z,9.55
2022-11-16T02:08:50.173Z,9.62
2022-11-16T02:12:09.253Z,9.55
2022-11-16T02:15:20.542Z,9.47
2022-11-16T02:18:38.371Z,9.52
2022-11-16T02:21:44.889Z,9.49
2022-11-16T02:25:00.337Z,9.48
2022-11-16T02:28:16.610Z,9.65
2022-11-16T02:31:28.160Z,9.67
2022-11-16T02:34:36.050Z,9.62
2022-11-16T02:37:43.835Z,9.64
2022-11-16T02:40:50.187Z,9.55
2022-11-16T02:44:02.453Z,9.47
2022-11-16T02:47:11.562Z,9.55
2022-11-16T02:50:18.686Z,9.53
2022-11-16T02:53:23.064Z,9.54
2022-11-16T02:56:27.370Z,9.53
2022-11-16T02:59:36.008Z,9.51
2022-11-16T03:02:48.153Z,9.50
2022-11-16T03:05:53.687Z,9.58
2022-11-16T03:09:01.868Z,9.50
2022-11-16T03:12:11.064Z,9.51
2022-11-16T03:15:13.856Z,9.46
2022-11-16T03:18:19.719Z,9.56
2022-11-16T03:21:36.906Z,9.56
2022-11-16T03:24:40.415Z,9.50
2022-11-16T03:27:49.922Z,9.54
2022-11-16T03:30:58.749Z,9.48
2022-11-16T03:34:10.470Z,9.47
2022-11-16T03:37:15.201Z,9.52
2022-11-16T03:40:19.247Z,9.48
2022-11-16T03:43:26.584Z,9.39
2022-11-16T03:46:30.889Z,9.35
2022-11-16T03:49:34.936Z,9.46
2022-11-16T03:52:38.383Z,9.47
2022-11-16T03:55:43.473Z,9.41
2022-11-16T03:58:49.771Z,9.54
2022-11-16T04:01:53.535Z,9.51
2022-11-16T04:05:17.164Z,9.59
2022-11-16T04:08:38.715Z,9.52
2022-11-16T04:12:00.363Z,9.50
2022-11-16T04:15:21.294Z,9.58
2022-11-16T04:18:42.973Z,9.59
2022-11-16T04:22:11.996Z,9.54
2022-11-16T04:25:18.291Z,9.54
2022-11-16T04:28:23.799Z,9.61
2022-11-16T04:31:48.357Z,9.61
2022-11-16T04:35:09.966Z,9.48
2022-11-16T04:38:14.425Z,9.38
2022-11-16T04:41:35.382Z,9.44
2022-11-16T04:44:56.638Z,9.56
2022-11-16T04:48:02.265Z,9.47
2022-11-16T04:51:07.620Z,9.45
2022-11-16T04:54:12.524Z,9.55
2022-11-16T04:57:15.650Z,9.53
2022-11-16T05:00:20.140Z,9.56
2022-11-16T05:03:23.064Z,9.45
2022-11-16T05:06:26.493Z,9.48
2022-11-16T05:09:30.847Z,9.38
2022-11-16T05:12:34.191Z,9.41
2022-11-16T05:15:39.166Z,9.55
2022-11-16T05:18:41.783Z,9.56
2022-11-16T05:21:44.812Z,9.58
2022-11-16T05:24:49.327Z,9.53
2022-11-16T05:27:51.957Z,9.42
2022-11-16T05:30:54.398Z,9.46
2022-11-16T05:33:59.118Z,9.46
2022-11-16T05:37:01.716Z,9.39
2022-11-16T05:40:08.126Z,9.42
2022-11-16T05:43:23.151Z,9.45
2022-11-16T05:46:37.010Z,9.35
2022-11-16T05:49:40.961Z,9.45
2022-11-16T05:52:43.794Z,9.51
2022-11-16T05:55:49.025Z,9.62
2022-11-16T05:58:53.747Z,9.50
2022-11-16T06:01:57.882Z,9.53
2022-11-16T06:05:02.071Z,9.54
2022-11-16T06:08:05.439Z,9.60
2022-11-16T06:11:10.716Z,9.57
2022-11-16T06:14:15.989Z,9.53
2022-11-16T06:17:19.193Z,9.58
2022-11-16T06:20:21.965Z,9.60
2022-11-16T06:23:27.508Z,9.61
2022-11-16T06:26:31.745Z,9.63
2022-11-16T06:29:36.277Z,9.67
2022-11-16T06:32:39.110Z,9.70
2022-11-16T06:35:43.443Z,9.72
2022-11-16T06:38:47.284Z,9.76
2022-11-16T06:41:51.773Z,9.74
2022-11-16T06:44:55.271Z,9.81
2022-11-16T06:48:02.900Z,9.84
2022-11-16T06:51:06.226Z,9.88
2022-11-16T06:54:08.988Z,9.73
2022-11-16T06:57:13.367Z,9.91
2022-11-16T07:00:39.878Z,9.75
2022-11-16T07:03:47.064Z,9.84
2022-11-16T07:06:49.688Z,9.85
2022-11-16T07:09:53.426Z,9.90
2022-11-16T07:13:01.961Z,9.93
2022-11-16T07:16:06.087Z,9.88
2022-11-16T07:19:10.169Z,9.84
2022-11-16T07:22:14.211Z,9.95
2022-11-16T07:25:21.150Z,9.99
2022-11-16T07:28:27.908Z,10.03
2022-11-16T07:31:31.344Z,10.05
2022-11-16T07:34:54.124Z,10.07
2022-11-16T07:37:56.762Z,10.10
2022-11-16T07:41:04.359Z,10.07
2022-11-16T07:44:12.328Z,10.10
2022-11-16T07:47:17.583Z,10.22
2022-11-16T07:50:20.224Z,10.15
2022-11-16T07:53:24.340Z,10.24
2022-11-16T07:56:27.372Z,10.35
2022-11-16T07:59:31.768Z,10.31
2022-11-16T08:02:35.231Z,10.41
2022-11-16T08:05:39.954Z,10.46
2022-11-16T08:08:44.465Z,10.37
2022-11-16T08:11:47.295Z,10.45
2022-11-16T08:14:51.448Z,10.53
2022-11-16T08:17:54.351Z,10.65
2022-11-16T08:20:58.835Z,10.60
2022-11-16T08:24:01.883Z,10.69
2022-11-16T08:27:15.340Z,10.62
2022-11-16T08:30:23.929Z,10.65
2022-11-16T08:33:29.193Z,10.73
2022-11-16T08:36:32.127Z,10.80
2022-11-16T08:39:35.551Z,10.78
2022-11-16T08:42:43.473Z,10.82
2022-11-16T08:46:04.419Z,10.96
2022-11-16T08:49:13.394Z,11.10
2022-11-16T08:52:18.350Z,11.23
2022-11-16T08:55:22.547Z,11.44
2022-11-16T08:58:25.506Z,11.31
2022-11-16T09:01:32.551Z,11.32
2022-11-16T09:04:37.288Z,11.35
2022-11-16T09:07:40.934Z,11.28
2022-11-16T09:10:44.111Z,11.38
2022-11-16T09:13:50.281Z,11.40
2022-11-16T09:16:57.105Z,11.54
2022-11-16T09:20:00.385Z,11.60
2022-11-16T09:23:03.591Z,11.70
2022-11-16T09:26:07.146Z,11.97
2022-11-16T09:29:12.729Z,12.13
2022-11-16T09:32:18.624Z,12.20
2022-11-16T09:35:21.448Z,12.04
2022-11-16T09:38:40.228Z,12.11
2022-11-16T09:42:06.651Z,12.01
2022-11-16T09:45:19.622Z,12.03
2022-11-16T09:48:25.069Z,11.95
2022-11-16T09:51:32.579Z,12.03
2022-11-16T09:54:42.583Z,12.21
2022-11-16T09:57:46.806Z,12.37
2022-11-16T10:00:56.830Z,12.32
2022-11-16T10:04:09.097Z,12.27
2022-11-16T10:07:15.882Z,12.32
2022-11-16T10:10:30.328Z,12.34
2022-11-16T10:13:49.722Z,12.34
2022-11-16T10:16:58.361Z,12.37
2022-11-16T10:20:16.851Z,12.50
2022-11-16T10:23:28.830Z,12.48
2022-11-16T10:26:38.545Z,12.62
2022-11-16T10:29:53.678Z,12.83
2022-11-16T10:33:00.411Z,13.32
2022-11-16T10:36:11.113Z,13.45
2022-11-16T10:39:16.455Z,13.47
2022-11-16T10:42:23.265Z,13.96
2022-11-16T10:45:32.601Z,14.19
2022-11-16T10:48:42.857Z,14.08
2022-11-16T10:51:46.926Z,13.81
2022-11-16T10:54:49.573Z,13.60
2022-11-16T10:57:58.350Z,13.21
2022-11-16T11:01:01.790Z,13.19
2022-11-16T11:04:17.389Z,13.00
2022-11-16T11:07:31.288Z,13.05
2022-11-16T11:10:35.898Z,12.91
2022-11-16T11:13:38.626Z,13.02
2022-11-16T11:16:42.055Z,13.08
2022-11-16T11:19:44.566Z,13.22
2022-11-16T11:22:53.500Z,13.45
2022-11-16T11:25:59.154Z,13.49
2022-11-16T11:29:07.421Z,13.29
2022-11-16T11:32:20.754Z,13.21
2022-11-16T11:35:34.699Z,13.04
2022-11-16T11:38:56.127Z,12.87
2022-11-16T11:42:05.684Z,12.78
2022-11-16T11:45:13.170Z,12.72
2022-11-16T11:48:29.712Z,12.56
2022-11-16T11:51:36.009Z,12.53
2022-11-16T11:54:46.062Z,12.59
2022-11-16T11:57:53.768Z,12.53
2022-11-16T12:01:23.758Z,12.48
2022-11-16T12:05:01.581Z,12.47
2022-11-16T12:08:20.291Z,12.42
2022-11-16T12:11:32.491Z,12.64
2022-11-16T12:14:51.350Z,12.61
2022-11-16T12:18:03.761Z,12.53
2022-11-16T12:21:12.816Z,12.57
2022-11-16T12:24:29.574Z,12.49
2022-11-16T12:27:46.138Z,12.45
2022-11-16T12:31:01.424Z,12.36
2022-11-16T12:34:15.685Z,12.39
2022-11-16T12:37:25.048Z,12.29
2022-11-16T12:40:35.889Z,12.21
2022-11-16T12:43:48.074Z,12.36
2022-11-16T12:46:58.574Z,12.32
2022-11-16T12:50:15.551Z,12.26
2022-11-16T12:53:37.972Z,12.25
2022-11-16T12:56:51.793Z,12.19
2022-11-16T13:00:06.983Z,12.20
2022-11-16T13:03:18.964Z,12.18
2022-11-16T13:06:29.018Z,12.18
2022-11-16T13:09:36.360Z,12.18
2022-11-16T13:12:39.514Z,12.17
2022-11-16T13:15:46.404Z,12.16
2022-11-16T13:18:49.569Z,12.16
2022-11-16T13:22:02.684Z,12.23
2022-11-16T13:25:18.615Z,11.99
2022-11-16T13:28:33.281Z,11.95
2022-11-16T13:31:41.629Z,11.81
2022-11-16T13:34:45.859Z,11.68
2022-11-16T13:37:49.400Z,11.81
2022-11-16T13:40:51.897Z,11.68
2022-11-16T13:43:54.946Z,11.76
2022-11-16T13:47:04.450Z,11.74
2022-11-16T13:50:18.456Z,11.80
2022-11-16T13:56:53.556Z,11.87
2022-11-16T14:00:09.796Z,11.78
2022-11-16T14:03:28.934Z,11.80
2022-11-16T14:06:56.700Z,11.86
2022-11-16T14:10:00.433Z,11.79
2022-11-16T14:13:04.564Z,11.69
2022-11-16T14:16:54.862Z,11.62
2022-11-16T14:19:59.179Z,11.62
2022-11-16T14:23:23.034Z,11.70
2022-11-16T14:26:37.308Z,11.64
2022-11-16T14:29:55.765Z,11.51
2022-11-16T14:33:01.751Z,11.63
2022-11-16T14:36:10.803Z,11.63
2022-11-16T14:39:26.490Z,11.57
2022-11-16T14:42:38.141Z,11.57
2022-11-16T14:45:56.175Z,11.41
2022-11-16T14:49:01.611Z,11.50
2022-11-16T14:52:08.296Z,11.45
2022-11-16T14:55:18.516Z,11.37
2022-11-16T14:58:23.010Z,11.45
2022-11-16T15:01:28.438Z,11.36
2022-11-16T15:04:31.325Z,11.44
2022-11-16T15:07:35.203Z,11.35
2022-11-16T15:10:49.545Z,11.37
2022-11-16T15:13:55.350Z,11.24
2022-11-16T15:16:59.970Z,11.33
2022-11-16T15:20:04.539Z,11.41
2022-11-16T15:23:14.887Z,11.33
2022-11-16T15:26:20.594Z,11.46
2022-11-16T15:29:24.630Z,11.46
2022-11-16T15:32:27.386Z,11.45
2022-11-16T15:35:31.859Z,11.45
2022-11-16T15:38:37.604Z,11.46
2022-11-16T15:41:40.817Z,11.40
2022-11-16T15:44:44.006Z,11.45
2022-11-16T15:47:47.442Z,11.34
2022-11-16T15:51:07.216Z,11.42
2022-11-16T15:54:21.033Z,11.32
2022-11-16T15:57:24.948Z,11.37
2022-11-16T16:00:28.269Z,11.36
2022-11-16T16:03:34.833Z,11.37
2022-11-16T16:06:46.640Z,11.26
2022-11-16T16:10:22.215Z,11.33
2022-11-16T16:13:50.609Z,11.26
2022-11-16T16:16:57.941Z,11.43
2022-11-16T16:20:02.689Z,11.33
2022-11-16T16:23:07.626Z,11.33
2022-11-16T16:26:11.486Z,11.34
2022-11-16T16:29:14.020Z,11.40
2022-11-16T16:32:24.335Z,11.37
2022-11-16T16:35:27.033Z,11.37
2022-11-16T16:38:29.776Z,11.27
2022-11-16T16:41:33.698Z,11.31
2022-11-16T16:44:36.509Z,11.23
2022-11-16T16:47:39.160Z,11.39
2022-11-16T16:50:42.101Z,11.27
2022-11-16T16:53:45.395Z,11.22
2022-11-16T16:56:49.346Z,11.27
2022-11-16T16:59:51.968Z,11.27
2022-11-16T17:02:54.370Z,11.31
2022-11-16T17:05:59.831Z,11.24
2022-11-16T17:09:02.577Z,11.32
2022-11-16T17:12:06.915Z,11.18
2022-11-16T17:15:13.841Z,11.21
2022-11-16T17:18:19.384Z,11.22
2022-11-16T17:21:22.181Z,11.29
2022-11-16T17:24:24.835Z,11.34
2022-11-16T17:27:28.928Z,11.28
2022-11-16T17:30:31.784Z,11.32
2022-11-16T17:33:34.766Z,11.30
2022-11-16T17:36:37.814Z,11.27
2022-11-16T17:39:40.727Z,11.31
2022-11-16T17:42:45.027Z,11.37
2022-11-16T17:45:47.677Z,11.32
2022-11-16T17:48:50.883Z,11.28
2022-11-16T17:51:54.097Z,11.27
2022-11-16T17:54:56.588Z,11.39
2022-11-16T17:58:00.532Z,11.36
2022-11-16T18:01:03.267Z,11.37
2022-11-16T18:04:06.205Z,11.43
2022-11-16T18:07:08.995Z,11.29
2022-11-16T18:10:18.882Z,11.38
2022-11-16T18:13:23.409Z,11.28
2022-11-16T18:16:27.888Z,11.30
2022-11-16T18:19:30.368Z,11.25
2022-11-16T18:22:33.045Z,11.38
2022-11-16T18:25:36.925Z,11.34
2022-11-16T18:28:41.439Z,11.38
2022-11-16T18:31:44.403Z,11.44
2022-11-16T18:34:47.175Z,11.39
2022-11-16T18:37:49.913Z,11.34
2022-11-16T18:41:03.752Z,11.31
2022-11-16T18:44:08.185Z,11.34
2022-11-16T18:47:10.913Z,11.29
2022-11-16T18:50:20.073Z,11.35
2022-11-16T18:53:25.642Z,11.30
2022-11-16T18:56:28.831Z,11.32
2022-11-16T18:59:32.976Z,11.39
2022-11-16T19:02:35.884Z,11.35
2022-11-16T19:05:38.837Z,11.41
2022-11-16T19:08:54.058Z,11.28
2022-11-16T19:11:58.319Z,11.32
2022-11-16T19:15:02.772Z,11.37
2022-11-16T19:18:20.904Z,11.32
2022-11-16T19:21:24.522Z,11.19
2022-11-16T19:24:27.360Z,11.28
2022-11-16T19:27:30.137Z,11.33
2022-11-16T19:30:53.224Z,11.36
2022-11-16T19:33:57.735Z,11.43
2022-11-16T19:37:00.480Z,11.42
2022-11-16T19:40:03.604Z,11.46
2022-11-16T19:43:07.584Z,11.36
2022-11-16T19:46:16.359Z,11.33
2022-11-16T19:49:20.666Z,11.30
2022-11-16T19:52:23.525Z,11.31
2022-11-16T19:55:26.687Z,11.25
2022-11-16T19:58:29.522Z,11.37
2022-11-16T20:01:33.648Z,11.34
2022-11-16T20:04:36.404Z,11.22
2022-11-16T20:07:39.305Z,11.26
2022-11-16T20:10:42.055Z,11.28
2022-11-16T20:13:44.740Z,11.32
2022-11-16T20:16:50.343Z,11.34
2022-11-16T20:19:52.976Z,11.32
2022-11-16T20:22:55.713Z,11.28
2022-11-16T20:25:58.400Z,11.30
2022-11-16T20:29:00.927Z,11.31
2022-11-16T20:32:05.316Z,11.21
2022-11-16T20:35:08.662Z,11.25
2022-11-16T20:38:11.421Z,11.23
2022-11-16T20:41:15.797Z,11.29
2022-11-16T20:44:21.981Z,11.29
2022-11-16T20:47:25.984Z,11.20
2022-11-16T20:50:28.479Z,11.17
2022-11-16T20:53:32.487Z,11.18
2022-11-16T20:56:35.826Z,11.21
2022-11-16T20:59:38.317Z,11.15
2022-11-16T21:02:42.634Z,11.15
2022-11-16T21:05:50.156Z,11.15
2022-11-16T21:08:53.739Z,11.15
2022-11-16T21:12:14.745Z,11.07
2022-11-16T21:15:17.178Z,11.07
2022-11-16T21:18:23.351Z,11.04
2022-11-16T21:21:28.129Z,11.03
2022-11-16T21:24:32.124Z,11.06
2022-11-16T21:27:34.596Z,11.00
2022-11-16T21:30:37.166Z,11.07
2022-11-16T21:33:40.961Z,11.04
2022-11-16T21:36:43.452Z,10.93
2022-11-16T21:39:47.031Z,11.02
2022-11-16T21:42:51.222Z,11.02
2022-11-16T21:46:01.933Z,11.01
2022-11-16T21:49:07.530Z,11.05
2022-11-16T21:52:10.060Z,11.01
2022-11-16T21:55:12.675Z,11.06
2022-11-16T21:58:15.108Z,11.11
2022-11-16T22:01:17.713Z,11.06
2022-11-16T22:04:40.202Z,11.01
2022-11-16T22:07:42.824Z,11.00
2022-11-16T22:10:49.674Z,10.97
2022-11-16T22:13:52.167Z,10.86
2022-11-16T22:16:54.652Z,10.98
2022-11-16T22:19:58.756Z,11.08
2022-11-16T22:23:01.208Z,11.02
2022-11-16T22:26:05.443Z,10.99
2022-11-16T22:29:07.902Z,10.84
2022-11-16T22:32:10.557Z,10.55
2022-11-16T22:35:14.459Z,10.40
2022-11-16T22:38:17.000Z,10.48
2022-11-16T22:41:20.217Z,10.32
2022-11-16T22:44:22.684Z,10.35
2022-11-16T22:47:25.135Z,10.27
2022-11-16T22:50:28.882Z,10.23
2022-11-16T22:53:31.493Z,10.22
2022-11-16T22:56:34.252Z,10.22
2022-11-16T22:59:36.786Z,10.26
2022-11-16T23:02:39.219Z,10.24
2022-11-16T23:05:43.043Z,10.28
2022-11-16T23:08:45.491Z,10.28
2022-11-16T23:12:06.415Z,10.33
2022-11-16T23:15:30.304Z,10.29
2022-11-16T23:18:33.407Z,10.18
2022-11-16T23:22:09.703Z,10.20
2022-11-16T23:25:30.809Z,10.14
2022-11-16T23:28:33.270Z,10.17
2022-11-16T23:31:35.904Z,10.14
2022-11-16T23:34:38.375Z,10.21
2022-11-16T23:37:52.757Z,10.08
2022-11-16T23:40:55.293Z,10.13
2022-11-16T23:43:57.775Z,10.07
2022-11-16T23:47:00.174Z,10.14
2022-11-16T23:50:02.914Z,10.13
2022-11-16T23:53:07.980Z,10.06
2022-11-16T23:56:10.460Z,9.98
2022-11-16T23:59:13.090Z,9.91
